Henderson, Nevada Weather observations

Data are for observation ending at time listed.
 Day   Time    Ave.   Ave.  Ave.  Vector   Max.   Stn.    Total    Solar   Ave.  
  of    of     Air    Rel.  Wind   Wind    Wind   Baro.  Precip.   Rad.    Soil  
Year   Day     Temp.  Hum.  Speed  Dir.    Gust   Pres.                    Temp. 
2015   (PST)    F      %     mph   deg.    mph     mb.     in.     W/m2     F   
------------------------------------------------------------------------------
  59    4:40   53.5    53    5.1   233     11.5   925.2    0.00       0    52.4
  59    4:50   53.3    53    3.5   231     11.1   925.4    0.00       0    52.3
  59    5:00   53.1    53    2.7   222      9.2   925.5    0.00       0    52.0
  59    5:10   53.1    53    3.9   214     11.8   925.6    0.00       0    51.7
  59    5:20   53.0    53    3.4   217     11.2   925.7    0.00       0    51.6
  59    5:30   53.0    52    4.3   224     10.3   925.8    0.00       0    51.4
  59    5:40   52.9    52    2.7   216     10.2   925.9    0.00       0    51.1
  59    5:50   52.7    52    3.6   220      9.0   926.0    0.00       0    50.8
  59    6:00   52.6    51    5.1   224     12.9   926.1    0.00       0    50.6
  59    6:10   52.5    50    5.1   227     12.8   926.3    0.00       1    50.5
  59    6:20   52.4    50    5.1   214     12.0   926.3    0.00       7    50.2
  59    6:30   52.4    49    4.6   202     13.0   926.5    0.00      18    49.9
  59    6:40   52.5    49    5.1   178     11.2   926.5    0.00      24    49.9
  59    6:50   52.6    49    4.6   187      9.9   926.5    0.00      65    50.1
  59    7:00   53.2    49    4.6   200      9.3   926.6    0.00     101    50.8
  59    7:10   53.8    48    5.7   183     11.6   926.7    0.00     146    52.6
  59    7:20   54.3    46    6.1   182     13.4   926.8    0.00     184    54.4
  59    7:30   54.9    44    6.9   188     16.0   927.0    0.00     221    56.0
  59    7:40   55.3    43    6.2   185     15.1   927.1    0.00     258    57.6
  59    7:50   55.6    42    4.8   166     11.5   927.2    0.00     299    59.0
  59    8:00   56.6    40    4.5   171     11.3   927.4    0.00     339    60.5
  59    8:10   56.9    38    4.7   169     12.9   927.6    0.00     379    61.7
  59    8:20   56.7    38    4.8   158     12.3   927.7    0.00     419    62.5
  59    8:30   56.6    37    6.4   150     14.8   927.8    0.00     452    63.0
  59    8:40   56.9    36    7.6   171     19.3   927.9    0.00     491    63.4
  59    8:50   57.3    36    7.0   172     15.9   928.1    0.00     575    64.0
  59    9:00   57.9    35    5.3   177     11.0   928.3    0.00     492    64.7
  59    9:10   58.0    34    4.2   194     12.1   928.5    0.00     449    64.9
  59    9:20   57.9    34    3.7   188     12.3   928.5    0.00     418    64.6
  59    9:30   57.8    34    4.9   244     11.0   928.5    0.00     665    64.8
  59    9:40   59.1    31    3.0   215     11.1   928.6    0.00     674    66.5
  59    9:50   59.5    30    4.5   211     11.9   928.6    0.00     569    67.7
  59   10:00   58.1    31    6.0   211     17.8   928.6    0.00     385    66.6
  59   10:10   58.0    31    5.1   223     13.0   928.6    0.00     674    65.1
  59   10:20   60.3    29    5.6   217     18.0   928.6    0.00     898    67.7
  59   10:30   60.1    29    6.6   222     16.1   928.7    0.00     795    69.5
  59   10:40   59.7    29    6.1   224     15.0   928.8    0.00     612    69.1
  59   10:50   59.1    30    6.0   212     15.2   928.8    0.00     631    67.8
  59   11:00   59.6    28    6.8   219     17.0   928.7    0.00     724    67.6
  59   11:10   59.9    29    5.2   225     12.9   928.8    0.00     846    68.3
  59   11:20   61.3    27    5.7   210     13.4   928.9    0.00     894    69.8
  59   11:30   60.6    29    6.4   230     15.6   928.8    0.00     778    69.7
  59   11:40   60.3    30    7.8   244     19.1   928.8    0.00     873    69.3
  59   11:50   61.4    28    6.3   227     14.9   928.9    0.00     942    69.8
  59   12:00   61.3    28    7.1   216     17.8   928.8    0.00     932    70.3
  59   12:10   61.7    26    7.4   197     16.1   928.8    0.00     959    70.6
  59   12:20   61.8    26    7.3   239     18.7   928.8    0.00     872    70.6
  59   12:30   61.6    26    7.7   231     16.6   928.8    0.00     897    70.2
  59   12:40   61.1    26    8.7   240     18.3   928.7    0.00     666    69.5
  59   12:50   60.9    26    8.2   240     16.4   928.8    0.00     843    68.1
  59   13:00   61.8    24    9.3   242     19.1   928.8    0.00     938    68.7
  59   13:10   62.1    24    6.5   216     15.9   928.8    0.00     898    69.2
  59   13:20   62.6    23    6.5   219     18.9   928.7    0.00     862    69.9
  59   13:30   62.4    23    7.1   190     21.1   928.7    0.00     751    69.7
  59   13:40   62.1    23    7.1   218     15.4   928.7    0.00     852    69.5
  59   13:50   62.6    22    6.3   202     14.5   928.7    0.00     869    69.7
  59   14:00   62.8    21    8.6   191     16.3   928.6    0.00     772    69.8
  59   14:10   62.7    21    7.4   189     16.7   928.6    0.00     763    69.4
  59   14:20   62.4    21    8.0   190     17.0   928.6    0.00     728    69.1
  59   14:30   62.5    21    7.3   200     22.8   928.6    0.00     603    68.6
  59   14:40   61.8    22    8.1   200     18.4   928.7    0.00     656    67.8
  59   14:50   62.4    21    6.4   219     17.2   928.7    0.00     623    67.6
  59   15:00   62.3    22    6.4   228     15.4   928.8    0.00     565    67.3
  59   15:10   63.1    22    5.5   208     15.3   928.8    0.00     526    67.1
  59   15:20   62.3    22    6.4   225     16.1   929.0    0.00     492    66.8
  59   15:30   62.1    22    6.3   193     20.1   929.0    0.00     455    66.2
  59   15:40   62.3    23    6.1   212     19.8   929.0    0.00     419    65.8
  59   15:50   61.9    23    6.1   197     14.8   928.9    0.00     382    64.9
  59   16:00   61.9    23    7.3   202     18.3   928.9    0.00     347    63.9
  59   16:10   61.6    22    7.2   182     16.9   928.9    0.00     303    62.9
  59   16:20   61.6    22    6.5   190     14.4   929.0    0.00     265    61.9
  59   16:30   61.3    22   10.1   194     23.5   929.1    0.00     227    61.1
  59   16:40   60.9    22    7.8   190     15.4   929.3    0.00     187    60.5
  59   16:50   60.4    23    7.1   194     19.4   929.4    0.00     152    59.9
  59   17:00   60.2    24    5.5   190     14.4   929.4    0.00     115    59.3
  59   17:10   60.0    24    6.1   204     15.9   929.5    0.00      67    58.8
  59   17:20   59.6    25    5.0   209     10.6   929.6    0.00      20    58.3
  59   17:30   59.2    26    5.3   187     13.3   929.7    0.00       9    57.7
  59   17:40   58.9    26    3.9   193     10.1   929.8    0.00       7    57.1
  59   17:50   58.7    26    3.5   192      9.7   930.0    0.00       1    56.4
  59   18:00   58.6    26    5.5   201     11.0   930.1    0.00       0    55.9
  59   18:10   58.6    26    4.6   188     13.0   930.2    0.00       0    55.6
  59   18:20   58.4    26    4.5   202     10.6   930.4    0.00       0    55.3
  59   18:30   58.2    27    3.6   212      7.6   930.5    0.00       0    54.9
  59   18:40   57.7    28    2.4   225      6.1   930.6    0.00       0    54.4
  59   18:50   57.3    29    2.2   236      5.6   930.8    0.00       0    53.9
  59   19:00   56.9    29    2.2   238      6.4   930.9    0.00       0    53.3
  59   19:10   56.4    30    1.9   264      3.5   931.1    0.00       0    52.8
  59   19:20   55.4    32    1.2   251      2.5   931.3    0.00       0    52.2
  59   19:30   54.8    33    1.4   254      3.7   931.4    0.00       0    51.3
  59   19:40   54.8    33    1.5   255      3.9   931.5    0.00       0    50.6
  59   19:50   54.6    33    2.1   258      5.3   931.6    0.00       0    50.1
  59   20:00   54.6    33    1.6   243      3.1   931.8    0.00       0    49.8
  59   20:10   54.4    33    1.4   223      5.3   931.8    0.00       0    49.4
  59   20:20   54.2    32    1.1   204      3.4   931.9    0.00       0    49.1
  59   20:30   53.9    32    1.0   134      2.6   932.0    0.00       0    48.8
  59   20:40   54.4    32    2.2   133      4.8   932.1    0.00       0    48.7
  59   20:50   55.3    31    1.9   166      4.5   932.4    0.00       0    49.1
  59   21:00   54.8    32    1.5   253      4.0   932.5    0.00       0    49.1
  59   21:10   54.3    33    1.5   241      4.0   932.6    0.00       0    49.1
  59   21:20   53.9    34    2.0   214      4.0   932.7    0.00       0    48.9
  59   21:30   53.4    35    1.6   206      3.7   932.9    0.00       0    48.6
  59   21:40   53.9    34    2.7   183      5.3   933.0    0.00       0    48.5
  59   21:50   54.8    33    3.2   187      5.4   933.1    0.00       0    48.7
  59   22:00   54.6    34    2.3   216      5.7   933.1    0.00       0    49.0
  59   22:10   54.1    35    2.2   196      4.4   933.2    0.00       0    49.0
  59   22:20   53.9    36    1.8   245      5.0   933.3    0.00       0    48.8
  59   22:30   53.8    36    0.8   261      3.7   933.4    0.00       0    48.6
  59   22:40   52.3    39    0.8   190      2.9   933.5    0.00       0    48.1
  59   22:50   51.6    40    2.4   213      6.1   933.5    0.00       0    47.6
  59   23:00   53.0    38    2.9   244      8.3   933.5    0.00       0    47.5
  59   23:10   53.5    38    2.0   223      5.8   933.6    0.00       0    48.0
  59   23:20   53.4    37    1.7   133      4.1   933.7    0.00       0    48.5
  59   23:30   52.5    40    1.2   140      3.1   933.8    0.00       0    48.5
  59   23:40   51.6    42    1.9   160      5.3   933.8    0.00       0    48.1
  59   23:50   51.9    41    1.1   136      3.1   933.8    0.00       0    47.9
  60    0:00   51.8    42    1.0    28      3.6   933.9    0.00       0    47.7
  60    0:10   51.2    43    1.0   342      2.6   934.0    0.00       0    47.6
  60    0:20   50.9    44    1.8   279      3.0   934.0    0.00       0    47.5
  60    0:30   50.9    44    1.0   337      3.1   934.1    0.00       0    47.3
  60    0:40   51.2    44    2.0   322      4.1   934.1    0.00       0    47.5
  60    0:50   51.4    45    1.3   345      4.4   934.2    0.00       0    47.8
  60    1:00   51.1    46    0.1   253      1.2   934.3    0.00       0    47.8
  60    1:10   50.2    47    0.2   314      1.3   934.3    0.00       0    47.5
  60    1:20   50.0    49    0.4   290      1.2   934.5    0.00       0    47.3
  60    1:30   50.0    50    0.0    42      0.6   934.6    0.00       0    47.2
  60    1:40   50.0    52    0.3   286      1.2   934.6    0.00       0    47.2
  60    1:50   49.8    53    0.1    74      0.7   934.5    0.00       0    47.3
  60    2:00   49.9    53    0.9    84      2.8   934.6    0.00       0    47.3
  60    2:10   49.9    53    0.1   128      0.9   934.6    0.00       0    47.3
  60    2:20   49.6    56    0.4     6      1.6   934.5    0.00       0    47.1
  60    2:30   49.3    57    0.2   273      0.8   934.6    0.00       0    46.8
  60    2:40   49.1    58    0.4   264      1.6   934.6    0.00       0    46.5
  60    2:50   48.8    59    0.0   282      0.5   934.6    0.00       0    46.4
  60    3:00   48.8    59    0.0   113      0.6   934.6    0.00       0    46.3
  60    3:10   48.8    59    0.0     0      0.0   934.7    0.00       0    46.3
  60    3:20   48.7    60    0.3   147      1.2   934.7    0.00       0    46.3
  60    3:30   49.0    59    0.6   153      1.6   934.8    0.00       0    46.4
  60    3:40   49.0    59    0.8   167      2.6   934.8    0.00       0    46.4
  60    3:50   49.0    58    1.2   138      2.2   934.8    0.00       0    46.4
  60    4:00   48.7    59    1.0   182      2.4   934.9    0.00       0    46.2
  60    4:10   48.4    60    0.5   163      2.2   935.1    0.00       0    45.9
  60    4:20   48.4    60    0.7   156      1.9   935.1    0.00       0    45.7
  60    4:30   48.0    62    1.7   298      4.1   935.2    0.00       0    45.5

Return to Henderson, Nevada graphs page.


Western Regional Climate Center,wrcc@dri.edu